Time;durP1;ratioP1;P1;durP2;ratioP2;P2;SDS_P1;SDS_P2;PMS_P1;PMS_P2;Temp;Humidity;BMP_temperature;BMP_pressure;BME280_temperature;BME280_humidity;BME280_pressure;Samples;Min_cycle;Max_cycle;Signal;HPM_P1;HPM_P2
2022/10/21 00:04:33;;;;;;;7.28;4.35;;;;;;;12.28;43.27;102176.25;5070697;27;20784;-61
2022/10/21 00:07:21;;;;;;;6.82;4.00;;;;;;;12.18;43.55;102176.25;5089344;27;20404;-62
2022/10/21 00:09:47;;;;;;;6.03;4.13;;;;;;;11.89;43.78;102180.78;5046671;28;20394;-61
2022/10/21 00:12:12;;;;;;;5.80;4.17;;;;;;;11.80;43.64;102171.84;5046807;28;20401;-60
2022/10/21 00:14:52;;;;;;;6.88;4.18;;;;;;;11.87;43.60;102180.94;5069336;27;20401;-60
2022/10/21 00:17:17;;;;;;;6.40;4.32;;;;;;;11.88;43.57;102179.94;5033156;28;20404;-61
2022/10/21 00:19:43;;;;;;;6.53;4.50;;;;;;;11.84;43.51;102173.22;5034978;28;20387;-61
2022/10/21 00:24:17;;;;;;;9.70;4.53;;;;;;;11.76;43.64;102181.91;5082532;27;20413;-61
2022/10/21 00:26:42;;;;;;;9.05;4.50;;;;;;;11.72;43.72;102180.53;5027059;28;20396;-61
2022/10/21 00:32:49;;;;;;;9.00;4.45;;;;;;;11.67;43.98;102182.78;5083554;27;20787;-60
2022/10/21 00:35:15;;;;;;;7.88;4.40;;;;;;;11.64;44.24;102185.69;5027095;28;20882;-59
2022/10/21 00:37:40;;;;;;;7.83;4.50;;;;;;;11.64;44.36;102183.03;5040918;28;20391;-63
2022/10/21 00:40:06;;;;;;;8.23;4.78;;;;;;;11.61;44.40;102192.16;5037834;28;20481;-60
2022/10/21 00:43:17;;;;;;;7.53;4.68;;;;;;;11.56;44.58;102204.13;5079591;27;20408;-62
2022/10/21 00:45:44;;;;;;;7.80;4.57;;;;;;;11.51;44.61;102193.94;5026751;28;20407;-61
2022/10/21 00:50:31;;;;;;;10.02;4.47;;;;;;;11.42;44.64;102195.63;5074482;27;20409;-61
2022/10/21 00:52:59;;;;;;;12.38;5.30;;;;;;;11.36;44.63;102198.84;5026857;28;20400;-59
2022/10/21 00:56:11;;;;;;;13.27;6.18;;;;;;;11.22;45.05;102197.41;5066403;27;20405;-61
2022/10/21 00:58:37;;;;;;;8.90;5.07;;;;;;;11.20;45.30;102201.19;5046982;28;20394;-61
2022/10/21 01:02:27;;;;;;;8.88;5.03;;;;;;;11.08;45.50;102200.47;5072369;27;20405;-61
2022/10/21 01:04:56;;;;;;;7.60;4.67;;;;;;;11.09;45.21;102202.13;5045512;28;20480;-62
2022/10/21 01:07:22;;;;;;;8.57;5.00;;;;;;;11.02;45.42;102193.91;5032082;28;20384;-61
2022/10/21 01:09:47;;;;;;;6.95;4.95;;;;;;;11.05;45.71;102203.38;5043095;28;20390;-62
2022/10/21 01:12:56;;;;;;;8.05;5.50;;;;;;;10.92;45.74;102205.47;5037742;28;20371;-61
2022/10/21 01:16:16;;;;;;;11.02;5.57;;;;;;;10.81;46.48;102201.09;5076075;27;20778;-60
2022/10/21 01:19:16;;;;;;;10.02;6.13;;;;;;;10.74;46.59;102210.56;5017122;28;20414;-60
2022/10/21 01:23:27;;;;;;;9.00;6.40;;;;;;;10.66;47.07;102209.44;5068213;27;20399;-61
2022/10/21 01:26:28;;;;;;;13.35;7.30;;;;;;;10.63;47.49;102207.03;5029894;28;20395;-61
2022/10/21 01:30:07;;;;;;;13.10;8.63;;;;;;;10.48;47.84;102209.22;5090060;27;20446;-61
2022/10/21 01:32:41;;;;;;;10.60;7.82;;;;;;;10.45;48.00;102228.03;5034973;28;20405;-61
2022/10/21 01:35:21;;;;;;;12.33;7.60;;;;;;;10.31;48.02;102223.91;5035515;28;20477;-61
2022/10/21 01:40:28;;;;;;;14.15;7.20;;;;;;;10.40;48.22;102230.22;5084597;27;21198;-60
2022/10/21 01:44:51;;;;;;;13.80;7.50;;;;;;;10.45;48.34;102233.34;5092654;27;20918;-61
2022/10/21 01:47:23;;;;;;;11.65;6.97;;;;;;;10.47;48.23;102236.69;5025246;28;20408;-60
2022/10/21 01:49:58;;;;;;;10.87;6.53;;;;;;;10.47;47.97;102239.34;5026708;28;20821;-60
2022/10/21 01:52:24;;;;;;;11.43;7.30;;;;;;;10.48;48.21;102248.16;5040803;28;20397;-61
2022/10/21 01:54:56;;;;;;;14.95;6.78;;;;;;;10.45;48.44;102245.75;5046835;28;20497;-62
2022/10/21 01:57:26;;;;;;;12.98;6.93;;;;;;;10.38;48.01;102241.94;5033908;28;20391;-61
2022/10/21 01:59:53;;;;;;;10.02;6.85;;;;;;;10.39;48.69;102249.78;5040247;28;20411;-60
2022/10/21 02:03:54;;;;;;;13.05;7.15;;;;;;;10.38;48.22;102252.56;5077864;27;20414;-61
2022/10/21 02:06:19;;;;;;;19.88;11.60;;;;;;;10.31;48.14;102247.75;5043032;28;20899;-62
2022/10/21 02:08:45;;;;;;;11.97;7.03;;;;;;;10.33;48.31;102259.09;5038350;28;20407;-62
2022/10/21 02:11:11;;;;;;;12.30;8.67;;;;;;;10.31;48.00;102257.53;5026709;28;20482;-61
2022/10/21 02:13:44;;;;;;;9.65;7.72;;;;;;;10.26;48.30;102249.94;5033228;28;20377;-61
2022/10/21 02:16:14;;;;;;;11.27;6.55;;;;;;;10.25;48.08;102250.06;5046404;28;20397;-60
2022/10/21 02:22:08;;;;;;;11.40;6.50;;;;;;;10.22;48.19;102268.88;5085193;27;20409;-61
2022/10/21 02:25:13;;;;;;;11.27;7.00;;;;;;;10.20;48.41;102274.31;5065766;27;20550;-60
2022/10/21 02:27:39;;;;;;;9.40;6.35;;;;;;;10.19;47.98;102272.63;5046382;28;20922;-61
2022/10/21 02:31:15;;;;;;;11.45;5.97;;;;;;;10.18;48.33;102278.91;5059798;27;20405;-62
2022/10/21 02:36:15;;;;;;;10.35;6.20;;;;;;;10.09;48.14;102280.50;5085493;27;20911;-60
2022/10/21 02:40:54;;;;;;;9.40;6.28;;;;;;;10.08;48.22;102276.19;5065553;27;20408;-61
2022/10/21 02:43:45;;;;;;;10.85;7.13;;;;;;;10.11;48.49;102290.97;5086198;27;20863;-61
2022/10/21 02:48:05;;;;;;;11.65;6.93;;;;;;;10.07;48.35;102284.25;5067262;27;20939;-61
2022/10/21 02:51:29;;;;;;;10.27;6.50;;;;;;;10.00;48.33;102285.75;5073406;27;20403;-60
2022/10/21 02:53:55;;;;;;;10.02;6.50;;;;;;;10.01;48.52;102292.69;5034123;28;20415;-60
2022/10/21 02:56:21;;;;;;;11.55;6.55;;;;;;;10.02;48.27;102294.41;5026744;28;20384;-60
2022/10/21 02:58:46;;;;;;;9.33;6.00;;;;;;;10.02;47.98;102291.75;5035025;28;20387;-60
2022/10/21 03:01:12;;;;;;;9.77;6.30;;;;;;;10.04;47.98;102305.69;5026361;28;20380;-61
2022/10/21 03:03:37;;;;;;;9.70;6.28;;;;;;;9.98;48.21;102307.06;5035533;28;20481;-60
2022/10/21 03:06:03;;;;;;;9.33;5.67;;;;;;;9.98;48.42;102312.34;5026646;28;20391;-61
2022/10/21 03:08:28;;;;;;;10.60;6.20;;;;;;;9.92;47.88;102308.41;5034919;28;20390;-62
2022/10/21 03:14:49;;;;;;;10.18;7.68;;;;;;;9.88;48.44;102311.41;5075035;27;20404;-61
2022/10/21 03:17:15;;;;;;;14.88;6.47;;;;;;;9.84;48.23;102302.06;5038137;28;20401;-61
2022/10/21 03:19:40;;;;;;;10.27;6.17;;;;;;;9.84;47.85;102315.28;5041283;28;20512;-60
2022/10/21 03:22:06;;;;;;;9.13;5.37;;;;;;;9.86;47.99;102321.31;5037819;28;20475;-60
2022/10/21 03:24:31;;;;;;;8.60;6.13;;;;;;;9.76;47.90;102307.97;5041106;28;20832;-60
2022/10/21 03:28:43;;;;;;;12.25;8.48;;;;;;;9.62;48.00;102314.41;5074397;27;20422;-61
2022/10/21 03:33:09;;;;;;;10.77;8.07;;;;;;;9.59;48.22;102314.63;5086890;27;20407;-60
2022/10/21 03:35:34;;;;;;;15.05;10.15;;;;;;;9.56;48.00;102301.63;5032316;28;20763;-60
2022/10/21 03:38:00;;;;;;;13.40;7.20;;;;;;;9.54;48.17;102307.09;5041005;28;20763;-60
2022/10/21 03:40:29;;;;;;;18.07;12.87;;;;;;;9.54;48.04;102306.22;5037988;28;20375;-60
2022/10/21 03:42:57;;;;;;;12.45;8.27;;;;;;;9.48;47.44;102310.19;5041754;28;20415;-61
2022/10/21 03:45:23;;;;;;;12.80;7.20;;;;;;;9.45;48.05;102305.16;5042423;28;20397;-60
2022/10/21 03:47:49;;;;;;;14.13;9.03;;;;;;;9.43;48.17;102306.25;5042237;28;20448;-61
2022/10/21 03:50:56;;;;;;;16.65;8.68;;;;;;;9.40;47.96;102319.72;5070250;27;20488;-60
2022/10/21 03:55:19;;;;;;;13.38;6.45;;;;;;;9.34;48.19;102316.59;5064189;27;20409;-59
2022/10/21 03:57:46;;;;;;;9.27;7.00;;;;;;;9.30;48.10;102309.03;5025571;28;20505;-61
2022/10/21 04:00:12;;;;;;;12.52;6.60;;;;;;;9.33;48.30;102314.09;5025158;28;20900;-59
2022/10/21 04:05:04;;;;;;;10.40;5.78;;;;;;;9.26;48.15;102315.56;5077373;27;20763;-59
2022/10/21 04:07:29;;;;;;;13.02;5.78;;;;;;;9.25;47.99;102319.16;5030314;28;20429;-60
2022/10/21 04:09:54;;;;;;;9.70;5.97;;;;;;;9.22;48.00;102316.72;5033311;28;20884;-60
2022/10/21 04:12:20;;;;;;;11.00;5.63;;;;;;;9.24;48.30;102312.16;5035864;28;20441;-60
2022/10/21 04:14:45;;;;;;;12.73;5.40;;;;;;;9.23;48.34;102315.78;5029373;28;20399;-60
2022/10/21 04:17:11;;;;;;;12.95;5.50;;;;;;;9.16;48.53;102311.00;5025604;28;20391;-58
2022/10/21 04:19:37;;;;;;;13.70;5.20;;;;;;;9.20;48.34;102314.22;5031187;28;20391;-58
2022/10/21 04:22:02;;;;;;;11.27;5.50;;;;;;;9.18;48.08;102317.00;5027577;28;20402;-61
2022/10/21 04:24:28;;;;;;;13.25;5.45;;;;;;;9.22;47.92;102319.38;5032040;28;20798;-62
2022/10/21 04:28:26;;;;;;;8.82;5.00;;;;;;;9.20;47.95;102322.16;5062446;27;20744;-60
2022/10/21 04:30:51;;;;;;;11.60;5.45;;;;;;;9.15;48.04;102319.88;5024137;28;20403;-64
2022/10/21 04:34:13;;;;;;;10.80;5.05;;;;;;;9.16;47.77;102316.28;5066947;27;20414;-61
2022/10/21 04:36:39;;;;;;;16.58;6.45;;;;;;;9.13;47.68;102324.44;5039670;28;20411;-60
2022/10/21 04:39:04;;;;;;;11.82;5.30;;;;;;;9.07;47.39;102324.09;5024756;28;20431;-61
2022/10/21 04:43:05;;;;;;;19.98;5.50;;;;;;;9.07;47.80;102329.38;5072067;27;20423;-60
2022/10/21 04:45:30;;;;;;;8.80;4.90;;;;;;;9.05;47.54;102326.00;5025552;28;20407;-61
2022/10/21 04:49:28;;;;;;;13.13;5.47;;;;;;;9.06;47.54;102331.19;5071127;27;20396;-60
2022/10/21 04:51:54;;;;;;;12.85;5.50;;;;;;;9.01;47.24;102324.56;5044438;28;20416;-60
2022/10/21 04:54:19;;;;;;;13.23;7.17;;;;;;;9.02;47.70;102326.25;5046356;28;20390;-62
2022/10/21 04:56:45;;;;;;;14.37;5.80;;;;;;;8.99;47.01;102309.66;5045507;28;20386;-62
2022/10/21 04:59:10;;;;;;;17.45;5.75;;;;;;;8.94;47.36;102317.09;5046143;28;20417;-61
2022/10/21 05:01:35;;;;;;;14.60;5.77;;;;;;;8.96;47.92;102312.53;5045510;28;20772;-60
2022/10/21 05:04:01;;;;;;;18.35;6.32;;;;;;;9.06;47.30;102319.78;5043965;28;20392;-61
2022/10/21 05:06:26;;;;;;;15.27;7.40;;;;;;;9.09;47.59;102311.56;5035439;28;20407;-61
2022/10/21 05:08:52;;;;;;;13.50;6.20;;;;;;;9.20;46.66;102330.09;5044408;28;20445;-61
2022/10/21 05:11:17;;;;;;;12.18;6.97;;;;;;;9.24;46.41;102323.59;5045870;28;20389;-61
2022/10/21 05:13:44;;;;;;;14.83;7.67;;;;;;;9.33;46.61;102327.31;5045764;28;20386;-61
2022/10/21 05:16:09;;;;;;;12.70;5.80;;;;;;;9.44;46.39;102339.72;5049063;28;20402;-62
2022/10/21 05:18:35;;;;;;;13.60;5.93;;;;;;;9.54;46.06;102338.84;5043968;28;20393;-62
2022/10/21 05:21:00;;;;;;;14.20;6.37;;;;;;;9.70;45.67;102340.25;5030571;28;20884;-61
2022/10/21 05:23:26;;;;;;;10.73;5.65;;;;;;;9.74;45.56;102339.88;5044427;28;20382;-62
2022/10/21 05:25:52;;;;;;;11.63;5.97;;;;;;;9.97;45.16;102358.34;5045172;28;20902;-61
2022/10/21 05:28:18;;;;;;;10.57;5.27;;;;;;;10.03;44.52;102347.25;5034160;28;20426;-62
2022/10/21 05:30:44;;;;;;;12.52;5.18;;;;;;;10.07;44.15;102342.56;5039823;28;20383;-61
2022/10/21 05:33:09;;;;;;;10.27;5.13;;;;;;;10.19;43.89;102348.63;5035477;28;20508;-61
2022/10/21 05:35:35;;;;;;;12.27;5.37;;;;;;;10.25;43.48;102353.44;5039251;28;20387;-61
2022/10/21 05:38:00;;;;;;;8.48;4.78;;;;;;;10.32;43.09;102352.00;5029057;28;20850;-61
2022/10/21 05:40:26;;;;;;;8.18;4.53;;;;;;;10.35;42.91;102345.56;5028425;28;20388;-61
2022/10/21 05:42:52;;;;;;;12.17;5.03;;;;;;;10.48;42.44;102362.16;5025207;28;20438;-61
2022/10/21 05:45:58;;;;;;;14.25;7.15;;;;;;;10.64;42.20;102364.34;5062645;27;20786;-60
2022/10/21 05:49:08;;;;;;;14.25;6.38;;;;;;;10.75;42.01;102363.41;5067061;27;20415;-59
2022/10/21 05:51:34;;;;;;;14.15;5.68;;;;;;;10.82;41.63;102361.94;5026113;28;20403;-61
2022/10/21 05:54:01;;;;;;;9.83;4.90;;;;;;;10.92;41.16;102373.44;5025420;28;20901;-60
2022/10/21 05:56:27;;;;;;;12.43;5.45;;;;;;;10.99;40.97;102374.59;5024193;28;20399;-61
2022/10/21 05:58:52;;;;;;;14.75;4.88;;;;;;;11.17;40.24;102366.03;5023852;28;20379;-61
2022/10/21 06:01:18;;;;;;;9.67;4.63;;;;;;;11.33;40.32;102386.78;5025583;28;20384;-59
2022/10/21 06:03:43;;;;;;;10.20;4.68;;;;;;;11.32;39.76;102377.13;5026132;28;20391;-61
2022/10/21 06:06:09;;;;;;;9.43;4.03;;;;;;;11.58;39.51;102399.59;5025994;28;20383;-60
2022/10/21 06:08:40;;;;;;;9.40;3.87;;;;;;;11.65;39.37;102394.56;5025924;28;20502;-61
2022/10/21 06:11:11;;;;;;;12.00;4.80;;;;;;;11.94;38.87;102401.78;5023640;28;20384;-60
2022/10/21 06:14:51;;;;;;;20.83;5.18;;;;;;;12.15;38.41;102405.16;5078091;27;20400;-60
2022/10/21 06:17:16;;;;;;;15.88;4.28;;;;;;;12.27;37.97;102408.53;5026842;28;20403;-61
2022/10/21 06:19:42;;;;;;;10.10;5.10;;;;;;;12.46;37.99;102409.50;5023997;28;20459;-60
2022/10/21 06:22:07;;;;;;;13.95;4.78;;;;;;;12.50;37.79;102409.09;5026273;28;20426;-60
2022/10/21 06:24:33;;;;;;;8.93;4.20;;;;;;;12.57;37.43;102414.69;5024069;28;20912;-61
2022/10/21 06:26:58;;;;;;;10.50;4.70;;;;;;;12.70;37.44;102415.25;5024616;28;20387;-60
2022/10/21 06:29:24;;;;;;;15.57;4.97;;;;;;;12.86;37.30;102414.66;5024686;28;20413;-62
2022/10/21 06:31:49;;;;;;;11.70;4.37;;;;;;;12.98;37.20;102413.50;5019307;28;20467;-61
2022/10/21 06:34:15;;;;;;;18.55;4.60;;;;;;;13.17;37.06;102409.94;5026038;28;20415;-61
2022/10/21 06:36:40;;;;;;;8.95;3.65;;;;;;;13.21;36.63;102421.13;5026534;28;20415;-61
2022/10/21 06:39:07;;;;;;;8.80;3.40;;;;;;;13.12;36.61;102406.88;5026203;28;20441;-61
2022/10/21 06:41:32;;;;;;;8.95;2.90;;;;;;;13.16;36.41;102402.09;5026501;28;20387;-61
2022/10/21 06:43:58;;;;;;;6.70;3.25;;;;;;;13.27;36.40;102401.94;5026108;28;20384;-61
2022/10/21 06:46:24;;;;;;;6.35;2.75;;;;;;;13.14;36.00;102396.94;5026244;28;20386;-61
2022/10/21 06:48:49;;;;;;;10.23;3.28;;;;;;;12.95;36.35;102403.16;5025682;28;20388;-61
2022/10/21 06:51:21;;;;;;;10.83;3.33;;;;;;;12.91;35.73;102411.53;5025409;28;20753;-65
2022/10/21 06:53:51;;;;;;;5.32;2.10;;;;;;;12.75;35.62;102402.34;5032097;28;20459;-60
2022/10/21 06:56:18;;;;;;;9.50;2.38;;;;;;;12.78;35.43;102399.41;5025213;28;20506;-60
2022/10/21 06:58:46;;;;;;;7.57;2.25;;;;;;;12.66;35.68;102405.00;5025763;28;20407;-61
2022/10/21 07:01:47;;;;;;;10.02;2.25;;;;;;;12.51;35.58;102399.28;5080060;27;20407;-61
2022/10/21 07:04:12;;;;;;;6.90;2.00;;;;;;;12.72;35.44;102410.59;5047051;28;20405;-61
2022/10/21 07:08:18;;;;;;;5.55;1.80;;;;;;;12.78;34.84;102407.41;5068670;27;20413;-61
2022/10/21 07:10:44;;;;;;;11.65;2.78;;;;;;;12.94;34.80;102404.13;5042082;28;21188;-60
2022/10/21 07:14:12;;;;;;;7.43;2.10;;;;;;;12.78;34.47;102401.22;5076300;27;20400;-60
2022/10/21 07:17:42;;;;;;;6.20;2.00;;;;;;;13.01;34.65;102396.41;5090963;27;20404;-61
2022/10/21 07:20:08;;;;;;;5.85;1.70;;;;;;;13.11;34.14;102399.88;5046583;28;20398;-61
2022/10/21 07:22:34;;;;;;;5.50;2.10;;;;;;;13.15;33.88;102408.41;5041948;28;20494;-60
2022/10/21 07:24:59;;;;;;;5.63;1.95;;;;;;;13.22;33.57;102419.31;5027198;28;20832;-61
2022/10/21 07:27:25;;;;;;;5.00;2.07;;;;;;;13.13;33.34;102413.06;5025849;28;20455;-61
2022/10/21 07:29:50;;;;;;;5.13;1.92;;;;;;;13.18;33.19;102397.44;5036583;28;20726;-60
2022/10/21 07:32:16;;;;;;;6.50;2.00;;;;;;;13.43;33.09;102406.63;5046004;28;20382;-61
2022/10/21 07:34:41;;;;;;;4.60;1.95;;;;;;;13.58;33.01;102413.16;5045897;28;20487;-61
2022/10/21 07:37:07;;;;;;;7.30;2.07;;;;;;;13.39;32.98;102408.75;5045703;28;20827;-60
2022/10/21 07:39:33;;;;;;;8.10;2.00;;;;;;;13.57;32.93;102413.31;5041260;28;20425;-61
2022/10/21 07:41:59;;;;;;;6.87;2.00;;;;;;;13.76;32.73;102415.88;5046135;28;20382;-61
2022/10/21 07:44:25;;;;;;;8.07;2.10;;;;;;;13.41;33.23;102399.78;5037271;28;20394;-61
2022/10/21 07:46:52;;;;;;;5.25;2.20;;;;;;;13.37;33.30;102402.75;5046077;28;20447;-61
2022/10/21 07:49:19;;;;;;;9.38;3.63;;;;;;;13.53;33.09;102398.63;5039599;28;20390;-61
2022/10/21 07:51:45;;;;;;;5.88;2.05;;;;;;;13.57;32.77;102392.00;5046006;28;20421;-61
2022/10/21 07:54:13;;;;;;;5.53;2.00;;;;;;;13.75;32.83;102384.03;5038202;28;20381;-61
2022/10/21 07:56:41;;;;;;;8.23;2.40;;;;;;;13.57;32.89;102378.66;5045742;28;20449;-60
2022/10/21 07:59:08;;;;;;;7.40;2.70;;;;;;;13.63;32.97;102377.22;5032748;28;20474;-61
2022/10/21 08:01:35;;;;;;;7.28;2.47;;;;;;;13.89;32.39;102378.19;5045082;28;20795;-61
2022/10/21 08:04:01;;;;;;;7.97;3.63;;;;;;;14.08;32.61;102371.03;5045760;28;20593;-61
2022/10/21 08:06:27;;;;;;;8.17;2.37;;;;;;;14.28;32.46;102379.75;5031946;28;20456;-61
2022/10/21 08:08:56;;;;;;;3.70;1.90;;;;;;;14.18;32.07;102371.81;5045256;28;20382;-61
2022/10/21 08:12:54;;;;;;;6.65;1.98;;;;;;;13.84;32.76;102363.66;5081806;27;20392;-61
2022/10/21 08:15:19;;;;;;;7.63;2.13;;;;;;;13.85;32.85;102360.84;5026582;28;20410;-61
2022/10/21 08:17:45;;;;;;;6.20;2.20;;;;;;;13.92;32.73;102348.56;5026604;28;20390;-63
2022/10/21 08:20:11;;;;;;;6.60;2.30;;;;;;;13.83;32.86;102356.63;5026350;28;20388;-62
2022/10/21 08:23:11;;;;;;;7.50;2.30;;;;;;;13.64;33.00;102358.44;5081582;27;20779;-61
2022/10/21 08:25:37;;;;;;;6.63;2.20;;;;;;;13.72;32.54;102352.34;5030034;28;20908;-62
2022/10/21 08:28:04;;;;;;;8.82;2.30;;;;;;;14.07;32.58;102359.53;5029666;28;20398;-61
2022/10/21 08:30:30;;;;;;;7.75;2.40;;;;;;;13.98;32.49;102365.78;5027164;28;20901;-62
2022/10/21 08:32:59;;;;;;;4.78;2.13;;;;;;;13.82;32.75;102345.13;5038660;28;20442;-61
2022/10/21 08:35:26;;;;;;;6.53;2.13;;;;;;;14.03;32.69;102358.19;5040257;28;20510;-60
2022/10/21 08:37:52;;;;;;;6.03;2.20;;;;;;;14.25;32.54;102356.84;5046274;28;20400;-61
2022/10/21 08:40:19;;;;;;;8.07;2.40;;;;;;;14.18;32.61;102354.97;5046607;28;20382;-61
2022/10/21 08:43:18;;;;;;;5.28;2.10;;;;;;;13.92;33.02;102356.56;5090315;27;20940;-61
2022/10/21 08:45:50;;;;;;;6.05;2.47;;;;;;;14.10;33.14;102351.25;5031256;28;20751;-59
2022/10/21 08:48:23;;;;;;;7.90;2.45;;;;;;;14.13;32.99;102353.59;5033903;28;20378;-61
2022/10/21 08:53:40;;;;;;;7.03;2.20;;;;;;;13.98;33.17;102346.28;5020095;28;20433;-60
2022/10/21 08:56:11;;;;;;;5.43;2.22;;;;;;;14.10;33.21;102347.75;5025279;28;20481;-60
2022/10/21 08:58:36;;;;;;;10.73;2.28;;;;;;;14.24;33.09;102335.66;5034942;28;20786;-60
2022/10/21 09:01:54;;;;;;;6.57;2.17;;;;;;;14.36;32.87;102337.09;5112955;27;993676;-61
2022/10/21 09:04:25;;;;;;;9.40;2.40;;;;;;;14.31;33.11;102342.06;5136325;27;20405;-62
2022/10/21 09:07:35;;;;;;;12.73;2.78;;;;;;;14.24;33.09;102339.19;5088863;27;20403;-61
2022/10/21 09:10:19;;;;;;;8.70;2.50;;;;;;;14.42;33.08;102352.50;5046767;28;20547;-61
2022/10/21 09:12:53;;;;;;;5.65;2.20;;;;;;;14.39;32.68;102344.81;5046521;28;20381;-62
2022/10/21 09:15:47;;;;;;;4.25;1.83;;;;;;;14.48;32.50;102335.03;5069994;27;20403;-61
2022/10/21 09:18:26;;;;;;;6.93;2.22;;;;;;;14.48;32.62;102349.22;5066754;28;20395;-62
2022/10/21 09:21:50;;;;;;;7.50;2.03;;;;;;;14.31;32.76;102344.72;5066367;28;20382;-61
2022/10/21 09:25:52;;;;;;;8.32;2.30;;;;;;;14.30;33.10;102341.22;5078685;27;20400;-61
2022/10/21 09:28:17;;;;;;;5.53;2.00;;;;;;;14.33;32.87;102342.75;5046791;28;20393;-61
2022/10/21 09:30:44;;;;;;;5.87;2.10;;;;;;;14.34;32.86;102329.25;5046645;28;20386;-61
2022/10/21 09:33:35;;;;;;;6.03;2.17;;;;;;;14.28;33.12;102324.56;5046456;28;20500;-62
2022/10/21 09:36:12;;;;;;;5.28;2.05;;;;;;;14.14;33.37;102325.94;5046387;28;20389;-62
2022/10/21 09:38:55;;;;;;;8.35;2.20;;;;;;;13.88;33.84;102317.03;5036785;28;20391;-61
2022/10/21 09:41:23;;;;;;;7.30;2.30;;;;;;;13.91;33.84;102319.41;5044488;28;20390;-62
2022/10/21 09:43:49;;;;;;;7.60;1.98;;;;;;;13.95;33.72;102318.94;5046273;28;20937;-61
2022/10/21 09:46:16;;;;;;;7.22;2.40;;;;;;;14.18;33.38;102306.97;5032140;28;20380;-61
2022/10/21 09:48:47;;;;;;;10.95;4.53;;;;;;;14.38;33.54;102313.78;5046302;28;20382;-61
2022/10/21 09:51:17;;;;;;;13.40;4.20;;;;;;;14.56;33.37;102308.41;5045917;28;20459;-61
2022/10/21 09:53:48;;;;;;;7.65;2.50;;;;;;;14.71;33.02;102306.00;5046456;28;20752;-61
2022/10/21 09:56:16;;;;;;;11.43;2.60;;;;;;;14.64;32.89;102303.16;5046049;28;20392;-61
2022/10/21 09:58:42;;;;;;;6.95;2.05;;;;;;;14.49;33.29;102307.34;5033877;28;20399;-60
2022/10/21 10:01:14;;;;;;;8.63;2.30;;;;;;;14.29;33.30;102299.53;5030783;28;20434;-62
2022/10/21 10:03:45;;;;;;;6.40;2.40;;;;;;;14.30;33.58;102295.88;5034545;28;20422;-62
2022/10/21 10:06:11;;;;;;;8.35;2.22;;;;;;;14.45;33.32;102292.66;5043935;28;20767;-61
2022/10/21 10:08:46;;;;;;;4.97;2.10;;;;;;;14.48;33.32;102295.00;5045936;28;20378;-61
2022/10/21 10:11:15;;;;;;;8.18;2.58;;;;;;;14.38;33.66;102291.59;5045841;28;20483;-60
2022/10/21 10:14:24;;;;;;;8.02;2.50;;;;;;;14.67;33.30;102286.78;5045834;28;20891;-61
2022/10/21 10:16:49;;;;;;;7.47;2.30;;;;;;;14.80;33.21;102285.53;5046111;28;20390;-61
2022/10/21 10:19:20;;;;;;;5.20;2.30;;;;;;;14.95;33.34;102281.28;5045802;28;20888;-61
2022/10/21 10:22:05;;;;;;;6.53;2.30;;;;;;;15.03;33.20;102277.78;5045424;28;20777;-61
2022/10/21 10:24:32;;;;;;;7.67;2.20;;;;;;;15.01;32.96;102279.78;5035454;28;20424;-61
2022/10/21 10:27:03;;;;;;;7.85;2.78;;;;;;;14.85;33.28;102272.53;5027366;28;20383;-60
2022/10/21 10:29:28;;;;;;;8.00;2.30;;;;;;;14.83;33.22;102272.69;5045763;28;20522;-61
2022/10/21 10:31:58;;;;;;;6.20;2.20;;;;;;;14.70;33.80;102250.97;5045787;28;20517;-61
2022/10/21 10:34:38;;;;;;;4.57;1.85;;;;;;;14.60;33.67;102242.22;5045338;28;20382;-61
2022/10/21 10:37:17;;;;;;;8.60;2.60;;;;;;;14.69;33.74;102235.94;5032163;28;20425;-62
2022/10/21 10:39:46;;;;;;;5.82;2.20;;;;;;;14.81;33.92;102223.97;5007626;28;20383;-61
2022/10/21 10:43:46;;;;;;;3.75;2.15;;;;;;;14.95;34.04;102227.88;5085087;27;20406;-61
2022/10/21 10:46:24;;;;;;;6.17;2.00;;;;;;;14.88;33.81;102222.34;5027821;28;20410;-61
2022/10/21 10:48:52;;;;;;;5.88;2.55;;;;;;;14.83;33.75;102213.97;5025802;28;20905;-62
2022/10/21 10:51:32;;;;;;;9.57;2.63;;;;;;;14.88;33.87;102218.84;5026577;28;20396;-61
2022/10/21 10:55:42;;;;;;;8.77;2.63;;;;;;;14.90;34.03;102223.00;5079468;27;20415;-61
2022/10/21 10:58:09;;;;;;;7.40;2.45;;;;;;;14.91;33.99;102222.03;5041527;28;20485;-61
2022/10/21 11:00:42;;;;;;;5.07;2.15;;;;;;;14.79;34.08;102215.28;5037576;28;20391;-61
2022/10/21 11:03:17;;;;;;;8.57;3.00;;;;;;;14.78;34.23;102202.94;5040639;28;20379;-61
2022/10/21 11:05:49;;;;;;;5.13;2.13;;;;;;;14.97;34.00;102206.34;5037980;28;20382;-61
2022/10/21 11:08:20;;;;;;;8.32;2.45;;;;;;;14.86;33.67;102202.97;5041951;28;20383;-61
2022/10/21 11:10:48;;;;;;;7.90;2.50;;;;;;;14.85;34.06;102201.28;5042471;28;20374;-61
2022/10/21 11:13:20;;;;;;;7.47;2.45;;;;;;;14.99;33.75;102199.84;5038408;28;20394;-61
2022/10/21 11:15:51;;;;;;;4.97;2.63;;;;;;;15.05;33.86;102207.22;5040078;28;20469;-61
2022/10/21 11:18:30;;;;;;;12.50;2.85;;;;;;;15.01;33.89;102194.34;5034569;28;20420;-61
2022/10/21 11:21:07;;;;;;;6.65;2.55;;;;;;;15.17;33.75;102205.06;5046245;28;20381;-61
2022/10/21 11:23:42;;;;;;;5.23;2.40;;;;;;;15.23;33.97;102207.09;5046495;28;20408;-62
2022/10/21 11:26:28;;;;;;;7.32;2.70;;;;;;;15.12;33.94;102202.03;5043899;28;20416;-62
2022/10/21 11:29:32;;;;;;;6.80;2.70;;;;;;;15.09;33.84;102194.38;5026258;28;20394;-61
2022/10/21 11:32:06;;;;;;;9.18;2.70;;;;;;;15.24;33.89;102189.22;5027130;28;20383;-61
2022/10/21 11:34:52;;;;;;;6.27;2.43;;;;;;;15.36;33.72;102181.69;5045917;28;20785;-61
2022/10/21 11:38:03;;;;;;;11.43;3.08;;;;;;;15.38;33.99;102177.06;5031983;28;21895;-62
2022/10/21 11:40:31;;;;;;;10.02;3.17;;;;;;;15.52;33.80;102180.88;5025542;28;20392;-61
2022/10/21 11:43:11;;;;;;;7.07;2.92;;;;;;;15.54;33.68;102179.72;5046000;28;20381;-60
2022/10/21 11:45:42;;;;;;;10.82;3.00;;;;;;;15.48;33.60;102172.38;5044285;28;20406;-61
2022/10/21 11:48:16;;;;;;;6.75;2.80;;;;;;;15.54;33.36;102157.50;5088705;27;20905;-61
2022/10/21 11:50:48;;;;;;;7.27;2.60;;;;;;;15.61;33.52;102151.34;5046578;28;20389;-61
2022/10/21 11:53:41;;;;;;;7.53;2.90;;;;;;;15.65;33.38;102151.84;5046790;28;20864;-62
2022/10/21 11:56:47;;;;;;;10.75;2.67;;;;;;;15.63;33.32;102138.63;5020827;28;20385;-62
2022/10/21 11:59:24;;;;;;;6.88;2.88;;;;;;;15.54;33.70;102134.28;5039958;28;20926;-62
2022/10/21 12:02:07;;;;;;;8.10;2.60;;;;;;;15.62;33.40;102112.88;5046650;28;20436;-61
2022/10/21 12:07:11;;;;;;;9.05;2.90;;;;;;;15.70;33.46;102108.53;5070414;27;20919;-60
2022/10/21 12:09:53;;;;;;;5.57;2.60;;;;;;;15.73;33.68;102110.88;5026706;28;20399;-61
2022/10/21 12:12:30;;;;;;;6.93;2.90;;;;;;;15.78;33.41;102098.69;5027109;28;20441;-61
2022/10/21 12:15:04;;;;;;;4.35;2.33;;;;;;;15.77;33.33;102091.69;5046774;28;20396;-61
2022/10/21 12:20:06;;;;;;;9.43;2.90;;;;;;;15.91;33.40;102075.94;5092422;27;20403;-60
2022/10/21 12:22:33;;;;;;;7.10;2.70;;;;;;;15.93;33.39;102064.06;5066566;28;20404;-61
2022/10/21 12:25:08;;;;;;;7.40;2.90;;;;;;;15.99;33.39;102070.56;5054348;28;20873;-60
2022/10/21 12:27:42;;;;;;;8.52;2.80;;;;;;;15.96;33.34;102063.72;5066281;28;20782;-62
2022/10/21 12:30:13;;;;;;;8.10;3.17;;;;;;;16.03;33.41;102067.38;5039465;28;20397;-61
2022/10/21 12:32:53;;;;;;;5.43;2.90;;;;;;;16.14;33.12;102073.34;5046493;28;20378;-61
2022/10/21 12:35:39;;;;;;;8.52;3.08;;;;;;;16.10;33.15;102062.16;5046768;28;20397;-61
2022/10/21 12:40:24;;;;;;;10.50;2.83;;;;;;;16.23;33.08;102065.13;5121820;27;858289;-61
2022/10/21 12:43:03;;;;;;;8.18;2.63;;;;;;;16.28;33.14;102058.41;5068511;27;20400;-62
2022/10/21 12:45:36;;;;;;;7.50;2.60;;;;;;;16.18;33.08;102069.31;5046837;28;20410;-60
2022/10/21 12:48:25;;;;;;;8.50;2.70;;;;;;;16.25;33.28;102070.28;5046592;28;20389;-61
2022/10/21 12:51:01;;;;;;;7.07;2.92;;;;;;;16.38;33.09;102075.91;5046447;28;20781;-61
2022/10/21 12:54:53;;;;;;;8.40;3.00;;;;;;;16.46;33.01;102072.38;5074798;27;20410;-61
2022/10/21 12:57:27;;;;;;;7.97;2.50;;;;;;;16.41;32.93;102069.38;5047221;28;20945;-61
2022/10/21 13:03:12;;;;;;;6.75;2.47;;;;;;;16.39;33.08;102066.06;5065576;27;20412;-60